Terminal Aerodrome Forecast
Issued by NWS

Home | Current Version | Previous Version | Text Only | Print | Product List | Glossary On
Versions: 1 2 3 4 5 6 7 8 9 10 11 12 13 14 15
129
FTAK31 PAJN 171134
TAFAPG
TAF
PAPG 171134Z 1712/1812 18006KT P6SM SCT025 OVC040
      TEMPO 1712/1716 4SM SHRA FEW006 OVC025
     FM171600 14005KT 4SM -SHRA BR SCT006 OVC025
     FM180000 15005KT 6SM -RA BR SCT020 BKN035 OVC050
     FM180600 14010KT 3SM RA BR SCT004 OVC010
      AMD LTD TO CLD VIS AND WIND 1712/1715=

USA.gov is the U.S. government's official web portal to all federal, state and local government web resources and services.